createdAt,value
2022-10-07T00:01:11.376Z,98779.94
2022-10-07T00:03:39.749Z,98776.22
2022-10-07T00:06:17.002Z,98772.88
2022-10-07T00:08:50.425Z,98764.16
2022-10-07T00:11:26.281Z,98767.66
2022-10-07T00:13:57.929Z,98764.16
2022-10-07T00:16:35.010Z,98772.41
2022-10-07T00:19:08.009Z,98769.06
2022-10-07T00:21:37.955Z,98768.03
2022-10-07T00:24:08.088Z,98768.88
2022-10-07T00:26:37.265Z,98761.97
2022-10-07T00:29:07.111Z,98764.03
2022-10-07T00:31:36.913Z,98762.53
2022-10-07T00:34:05.849Z,98767.28
2022-10-07T00:36:37.432Z,98756.84
2022-10-07T00:39:10.054Z,98751.19
2022-10-07T00:41:50.422Z,98748.16
2022-10-07T00:44:30.037Z,98743.78
2022-10-07T00:47:00.965Z,98743.50
2022-10-07T00:49:30.206Z,98739.31
2022-10-07T00:51:58.675Z,98730.75
2022-10-07T00:54:26.481Z,98738.19
2022-10-07T00:56:54.299Z,98725.06
2022-10-07T00:59:22.238Z,98724.41
2022-10-07T01:01:50.638Z,98719.19
2022-10-07T01:04:20.312Z,98720.41
2022-10-07T01:06:48.093Z,98714.19
2022-10-07T01:09:16.146Z,98716.88
2022-10-07T01:12:05.675Z,98706.47
2022-10-07T01:14:52.419Z,98710.34
2022-10-07T01:17:29.549Z,98708.19
2022-10-07T01:20:12.431Z,98706.22
2022-10-07T01:23:17.450Z,98696.47
2022-10-07T01:25:50.674Z,98698.50
2022-10-07T01:29:04.145Z,98690.06
2022-10-07T01:31:39.169Z,98684.16
2022-10-07T01:34:10.389Z,98677.91
2022-10-07T01:36:40.474Z,98677.75
2022-10-07T01:39:15.775Z,98671.16
2022-10-07T01:41:43.812Z,98669.97
2022-10-07T01:44:13.886Z,98667.47
2022-10-07T01:46:44.013Z,98659.84
2022-10-07T01:49:12.247Z,98659.03
2022-10-07T01:51:58.082Z,98655.31
2022-10-07T01:54:34.102Z,98660.34
2022-10-07T01:57:39.173Z,98649.56
2022-10-07T02:00:14.646Z,98656.44
2022-10-07T02:03:10.849Z,98650.75
2022-10-07T02:06:30.953Z,98652.50
2022-10-07T02:09:06.533Z,98643.78
2022-10-07T02:11:42.356Z,98645.13
2022-10-07T02:14:29.664Z,98640.97
2022-10-07T02:17:05.489Z,98640.66
2022-10-07T02:19:39.486Z,98638.34
2022-10-07T02:22:11.229Z,98636.66
2022-10-07T02:24:40.591Z,98630.63
2022-10-07T02:27:16.305Z,98631.81
2022-10-07T02:29:51.469Z,98626.59
2022-10-07T02:32:25.453Z,98619.56
2022-10-07T02:35:00.231Z,98625.78
2022-10-07T02:37:35.384Z,98612.50
2022-10-07T02:40:12.222Z,98614.19
2022-10-07T02:42:53.027Z,98615.50
2022-10-07T02:45:50.094Z,98612.69
2022-10-07T02:48:32.999Z,98619.25
2022-10-07T02:51:06.786Z,98612.19
2022-10-07T02:53:35.443Z,98611.78
2022-10-07T02:56:05.280Z,98608.59
2022-10-07T02:58:35.696Z,98612.88
2022-10-07T03:01:05.840Z,98601.81
2022-10-07T03:03:33.714Z,98591.59
2022-10-07T03:06:06.263Z,98597.63
2022-10-07T03:08:36.614Z,98592.25
2022-10-07T03:11:04.446Z,98596.44
2022-10-07T03:13:32.534Z,98596.25
2022-10-07T03:16:05.576Z,98591.22
2022-10-07T03:18:34.565Z,98596.78
2022-10-07T03:21:18.595Z,98589.34
2022-10-07T03:23:52.678Z,98585.28
2022-10-07T03:26:22.330Z,98582.97
2022-10-07T03:28:51.069Z,98585.53
2022-10-07T03:31:20.364Z,98577.28
2022-10-07T03:33:51.036Z,98569.22
2022-10-07T03:36:19.883Z,98565.69
2022-10-07T03:38:49.381Z,98565.69
2022-10-07T03:41:19.342Z,98564.00
2022-10-07T03:43:50.449Z,98566.47
2022-10-07T03:46:22.495Z,98566.94
2022-10-07T03:48:52.486Z,98570.28
2022-10-07T03:51:20.930Z,98563.06
2022-10-07T03:53:48.856Z,98565.56
2022-10-07T03:56:17.561Z,98565.56
2022-10-07T03:58:45.367Z,98577.19
2022-10-07T04:01:17.898Z,98558.16
2022-10-07T04:03:53.779Z,98562.34
2022-10-07T04:06:21.720Z,98557.78
2022-10-07T04:08:58.461Z,98556.94
2022-10-07T04:11:26.467Z,98552.78
2022-10-07T04:13:56.482Z,98553.13
2022-10-07T04:16:28.180Z,98549.63
2022-10-07T04:18:57.977Z,98539.69
2022-10-07T04:21:28.333Z,98546.53
2022-10-07T04:23:56.225Z,98545.53
2022-10-07T04:26:24.152Z,98547.41
2022-10-07T04:28:52.482Z,98542.47
2022-10-07T04:31:23.024Z,98546.66
2022-10-07T04:34:00.764Z,98539.41
2022-10-07T04:36:36.155Z,98533.22
2022-10-07T04:39:16.000Z,98531.34
2022-10-07T04:41:54.914Z,98528.19
2022-10-07T04:44:27.814Z,98528.00
2022-10-07T04:47:03.935Z,98528.84
2022-10-07T04:49:32.698Z,98528.00
2022-10-07T04:52:02.030Z,98524.09
2022-10-07T04:54:35.779Z,98524.56
2022-10-07T04:57:03.835Z,98526.25
2022-10-07T04:59:34.388Z,98519.84
2022-10-07T05:02:02.962Z,98517.97
2022-10-07T05:04:33.663Z,98519.00
2022-10-07T05:07:03.306Z,98512.81
2022-10-07T05:09:32.321Z,98515.66
2022-10-07T05:12:01.164Z,98526.63
2022-10-07T05:14:32.122Z,98522.06
2022-10-07T05:17:00.596Z,98515.19
2022-10-07T05:19:33.215Z,98514.38
2022-10-07T05:22:01.407Z,98517.06
2022-10-07T05:24:30.150Z,98507.47
2022-10-07T05:26:58.033Z,98511.38
2022-10-07T05:29:25.835Z,98514.44
2022-10-07T05:31:55.213Z,98514.44
2022-10-07T05:34:26.350Z,98515.28
2022-10-07T05:36:55.735Z,98506.34
2022-10-07T05:39:24.195Z,98513.41
2022-10-07T05:41:56.241Z,98516.13
2022-10-07T05:44:31.417Z,98502.47
2022-10-07T05:47:02.055Z,98507.88
2022-10-07T05:49:30.889Z,98503.97
2022-10-07T05:51:59.485Z,98505.81
2022-10-07T05:54:27.386Z,98500.44
2022-10-07T05:56:57.195Z,98496.72
2022-10-07T05:59:25.645Z,98495.25
2022-10-07T06:01:57.854Z,98495.59
2022-10-07T06:04:27.576Z,98503.00
2022-10-07T06:06:55.446Z,98494.75
2022-10-07T06:09:42.058Z,98496.28
2022-10-07T06:12:35.046Z,98499.22
2022-10-07T06:15:09.923Z,98494.66
2022-10-07T06:17:45.170Z,98491.53
2022-10-07T06:20:15.626Z,98496.28
2022-10-07T06:22:44.652Z,98497.09
2022-10-07T06:25:14.562Z,98494.22
2022-10-07T06:27:43.444Z,98488.19
2022-10-07T06:30:13.227Z,98490.69
2022-10-07T06:32:41.037Z,98489.84
2022-10-07T06:35:09.343Z,98488.19
2022-10-07T06:37:39.256Z,98489.69
2022-10-07T06:40:09.296Z,98488.00
2022-10-07T06:42:37.184Z,98488.19
2022-10-07T06:45:19.640Z,98493.84
2022-10-07T06:47:49.880Z,98488.09
2022-10-07T06:50:18.001Z,98485.03
2022-10-07T06:52:45.818Z,98480.94
2022-10-07T06:55:13.998Z,98490.34
2022-10-07T06:57:45.990Z,98486.28
2022-10-07T07:00:17.229Z,98483.66
2022-10-07T07:02:45.943Z,98486.00
2022-10-07T07:05:15.584Z,98482.09
2022-10-07T07:07:45.725Z,98482.84
2022-10-07T07:10:13.689Z,98488.31
2022-10-07T07:12:45.093Z,98479.84
2022-10-07T07:15:13.163Z,98483.47
2022-10-07T07:17:41.493Z,98482.09
2022-10-07T07:20:11.277Z,98484.69
2022-10-07T07:22:40.720Z,98484.59
2022-10-07T07:25:10.145Z,98486.50
2022-10-07T07:27:39.070Z,98483.06
2022-10-07T07:30:09.195Z,98482.50
2022-10-07T07:32:37.012Z,98481.34
2022-10-07T07:35:06.299Z,98477.69
2022-10-07T07:37:34.400Z,98485.94
2022-10-07T07:40:04.033Z,98472.06
2022-10-07T07:42:33.634Z,98482.28
2022-10-07T07:45:01.518Z,98477.16
2022-10-07T07:47:29.866Z,98476.19
2022-10-07T07:49:57.891Z,98470.03
2022-10-07T07:52:30.684Z,98470.69
2022-10-07T07:55:02.691Z,98478.19
2022-10-07T07:57:31.299Z,98476.78
2022-10-07T08:00:05.384Z,98477.66
2022-10-07T08:02:43.054Z,98478.56
2022-10-07T08:05:18.007Z,98477.75
2022-10-07T08:07:50.026Z,98470.56
2022-10-07T08:10:17.827Z,98473.91
2022-10-07T08:12:45.638Z,98474.72
2022-10-07T08:15:13.735Z,98472.28
2022-10-07T08:17:41.565Z,98473.13
2022-10-07T08:20:10.909Z,98465.28
2022-10-07T08:22:39.678Z,98465.72
2022-10-07T08:25:08.228Z,98463.47
2022-10-07T08:27:36.582Z,98473.66
2022-10-07T08:30:05.066Z,98456.88
2022-10-07T08:32:32.897Z,98464.75
2022-10-07T08:35:00.739Z,98453.38
2022-10-07T08:37:28.705Z,98456.53
2022-10-07T08:39:56.485Z,98459.28
2022-10-07T08:42:39.633Z,98455.19
2022-10-07T08:45:14.125Z,98455.19
2022-10-07T08:47:46.108Z,98457.72
2022-10-07T08:50:32.192Z,98453.38
2022-10-07T08:53:07.024Z,98446.31
2022-10-07T08:55:52.373Z,98442.81
2022-10-07T08:58:43.423Z,98444.69
2022-10-07T09:01:19.234Z,98431.84
2022-10-07T09:04:24.517Z,98432.47
2022-10-07T09:07:38.000Z,98427.06
2022-10-07T09:10:28.479Z,98433.09
2022-10-07T09:13:23.082Z,98434.78
2022-10-07T09:16:26.586Z,98434.16
2022-10-07T09:18:57.799Z,98423.19
2022-10-07T09:21:41.528Z,98421.72
2022-10-07T09:24:26.749Z,98425.28
2022-10-07T09:27:01.689Z,98423.19
2022-10-07T09:29:30.928Z,98420.06
2022-10-07T09:31:59.246Z,98413.81
2022-10-07T09:34:31.172Z,98406.97
2022-10-07T09:37:26.763Z,98410.28
2022-10-07T09:40:16.235Z,98403.44
2022-10-07T09:42:46.031Z,98403.22
2022-10-07T09:45:28.146Z,98400.28
2022-10-07T09:48:04.600Z,98400.09
2022-10-07T09:50:43.515Z,98407.59
2022-10-07T09:53:33.554Z,98403.00
2022-10-07T09:56:01.371Z,98402.56
2022-10-07T09:58:32.181Z,98396.97
2022-10-07T10:01:02.704Z,98399.47
2022-10-07T10:03:34.585Z,98396.34
2022-10-07T10:06:12.412Z,98393.00
2022-10-07T10:08:43.999Z,98393.41
2022-10-07T10:11:20.986Z,98398.19
2022-10-07T10:13:51.818Z,98392.38
2022-10-07T10:16:26.035Z,98389.84
2022-10-07T10:19:18.980Z,98377.34
2022-10-07T10:21:56.269Z,98376.47
2022-10-07T10:24:45.899Z,98376.06
2022-10-07T10:27:21.191Z,98372.50
2022-10-07T10:30:05.536Z,98364.59
2022-10-07T10:33:22.640Z,98361.47
2022-10-07T10:36:21.604Z,98362.09
2022-10-07T10:39:21.002Z,98358.09
2022-10-07T10:42:00.051Z,98353.72
2022-10-07T10:44:54.481Z,98354.53
2022-10-07T10:48:00.902Z,98342.00
2022-10-07T10:51:03.042Z,98340.97
2022-10-07T10:53:56.827Z,98347.81
2022-10-07T10:56:45.932Z,98343.19
2022-10-07T10:59:34.583Z,98330.25
2022-10-07T11:02:40.910Z,98315.88
2022-10-07T11:05:33.960Z,98312.56
2022-10-07T11:08:37.611Z,98322.13
2022-10-07T11:11:27.928Z,98311.69
2022-10-07T11:14:26.556Z,98308.78
2022-10-07T11:17:04.720Z,98306.69
2022-10-07T11:19:43.371Z,98298.28
2022-10-07T11:22:23.796Z,98298.22
2022-10-07T11:24:57.782Z,98301.31
2022-10-07T11:27:25.380Z,98287.84
2022-10-07T11:30:18.542Z,98291.22
2022-10-07T11:33:12.752Z,98283.00
2022-10-07T11:35:53.760Z,98272.53
2022-10-07T11:38:34.464Z,98273.63
2022-10-07T11:41:22.672Z,98273.16
2022-10-07T11:43:57.128Z,98273.13
2022-10-07T11:46:34.337Z,98261.97
2022-10-07T11:49:40.029Z,98264.47
2022-10-07T11:52:34.736Z,98250.81
2022-10-07T11:55:16.315Z,98248.06
2022-10-07T11:57:56.492Z,98244.88
2022-10-07T12:00:32.991Z,98242.00
2022-10-07T12:03:18.808Z,98234.97
2022-10-07T12:05:49.816Z,98237.34
2022-10-07T12:08:42.065Z,98231.75
2022-10-07T12:11:12.888Z,98224.16
2022-10-07T12:13:46.729Z,98222.22
2022-10-07T12:16:32.265Z,98217.31
2022-10-07T12:19:22.318Z,98211.94
2022-10-07T12:22:00.205Z,98208.91
2022-10-07T12:24:36.411Z,98203.84
2022-10-07T12:27:13.411Z,98207.31
2022-10-07T12:30:04.384Z,98205.19
2022-10-07T12:32:52.054Z,98194.31
2022-10-07T12:35:39.759Z,98187.13
2022-10-07T12:38:14.778Z,98188.91
2022-10-07T12:40:47.880Z,98191.63
2022-10-07T12:43:34.604Z,98190.56
2022-10-07T12:46:12.224Z,98190.31
2022-10-07T12:49:04.106Z,98188.81
2022-10-07T12:51:38.764Z,98180.31
2022-10-07T12:54:44.820Z,98184.84
2022-10-07T12:57:18.835Z,98182.25
2022-10-07T13:00:10.639Z,98182.84
2022-10-07T13:03:32.381Z,98182.63
2022-10-07T13:06:27.625Z,98174.72
2022-10-07T13:09:44.158Z,98164.41
2022-10-07T13:12:56.005Z,98157.56
2022-10-07T13:15:44.047Z,98158.16
2022-10-07T13:18:31.555Z,98156.28
2022-10-07T13:21:09.385Z,98147.41
2022-10-07T13:23:37.584Z,98140.31
2022-10-07T13:26:05.773Z,98139.38
2022-10-07T13:28:45.415Z,98135.81
2022-10-07T13:31:32.906Z,98139.25
2022-10-07T13:34:14.207Z,98127.31
2022-10-07T13:36:43.802Z,98125.16
2022-10-07T13:39:23.155Z,98127.63
2022-10-07T13:41:58.641Z,98120.31
2022-10-07T13:44:32.117Z,98122.81
2022-10-07T13:47:07.243Z,98105.16
2022-10-07T13:49:48.345Z,98110.97
2022-10-07T13:52:35.295Z,98111.94
2022-10-07T13:55:03.437Z,98110.13
2022-10-07T13:57:35.223Z,98104.31
2022-10-07T14:00:04.554Z,98102.88
2022-10-07T14:02:41.523Z,98092.41
2022-10-07T14:05:25.900Z,98103.13
2022-10-07T14:07:59.485Z,98094.00
2022-10-07T14:10:31.040Z,98091.41
2022-10-07T14:13:04.036Z,98090.41
2022-10-07T14:15:36.205Z,98092.56
2022-10-07T14:18:10.864Z,98082.28
2022-10-07T14:20:51.071Z,98087.28
2022-10-07T14:23:26.256Z,98081.25
2022-10-07T14:25:57.488Z,98086.22
2022-10-07T14:28:25.289Z,98080.69
2022-10-07T14:31:41.994Z,98074.28
2022-10-07T14:34:40.972Z,98072.91
2022-10-07T14:37:31.842Z,98071.50
2022-10-07T14:40:02.185Z,98074.00
2022-10-07T14:42:36.938Z,98067.97
2022-10-07T14:45:09.765Z,98061.81
2022-10-07T14:47:41.463Z,98063.13
2022-10-07T14:50:10.177Z,98066.41
2022-10-07T14:52:47.041Z,98060.72
2022-10-07T14:55:29.315Z,98061.44
2022-10-07T14:57:57.129Z,98057.31
2022-10-07T15:00:29.451Z,98058.19
2022-10-07T15:02:58.266Z,98050.75
2022-10-07T15:05:31.284Z,98048.75
2022-10-07T15:08:00.253Z,98042.47
2022-10-07T15:10:28.278Z,98042.25
2022-10-07T15:12:56.821Z,98040.25
2022-10-07T15:15:24.666Z,98040.25
2022-10-07T15:17:52.431Z,98037.16
2022-10-07T15:20:21.352Z,98033.34
2022-10-07T15:22:51.191Z,98032.00
2022-10-07T15:25:19.447Z,98021.78
2022-10-07T15:27:47.287Z,98031.47
2022-10-07T15:30:15.199Z,98022.72
2022-10-07T15:32:43.655Z,98026.34
2022-10-07T15:35:12.772Z,98026.22
2022-10-07T15:37:46.025Z,98013.13
2022-10-07T15:40:15.192Z,98020.50
2022-10-07T15:42:44.921Z,98016.81
2022-10-07T15:45:13.811Z,98019.97
2022-10-07T15:47:41.745Z,98015.84
2022-10-07T15:50:11.630Z,98005.44
2022-10-07T15:52:41.895Z,98013.59
2022-10-07T15:55:09.972Z,98009.44
2022-10-07T15:57:37.862Z,98015.09
2022-10-07T16:00:06.762Z,98013.69
2022-10-07T16:02:39.776Z,98012.88
2022-10-07T16:05:09.567Z,98011.41
2022-10-07T16:07:37.345Z,98012.47
2022-10-07T16:10:08.514Z,98009.78
2022-10-07T16:12:41.288Z,98022.25
2022-10-07T16:15:09.780Z,98011.47
2022-10-07T16:17:37.634Z,98010.28
2022-10-07T16:20:11.048Z,98006.59
2022-10-07T16:22:39.328Z,98004.56
2022-10-07T16:25:07.631Z,98001.53
2022-10-07T16:27:53.876Z,98005.31
2022-10-07T16:30:40.324Z,97997.84
2022-10-07T16:33:08.693Z,97995.44
2022-10-07T16:35:36.504Z,98000.94
2022-10-07T16:38:04.983Z,98002.19
2022-10-07T16:40:32.817Z,97999.09
2022-10-07T16:43:00.674Z,97991.22
2022-10-07T16:45:28.461Z,97992.25
2022-10-07T16:47:56.741Z,97995.44
2022-10-07T16:50:24.731Z,97998.59
2022-10-07T16:52:53.594Z,97990.28
2022-10-07T16:55:23.018Z,97991.78
2022-10-07T16:57:53.118Z,97988.47
2022-10-07T17:00:21.436Z,97977.72
2022-10-07T17:02:49.243Z,97978.94
2022-10-07T17:05:18.280Z,97980.66
2022-10-07T17:07:46.569Z,97991.94
2022-10-07T17:10:14.730Z,97988.25
2022-10-07T17:12:44.012Z,97982.91
2022-10-07T17:15:11.974Z,97983.13
2022-10-07T17:17:39.858Z,97976.50
2022-10-07T17:20:10.164Z,97972.13
2022-10-07T17:22:38.029Z,97979.84
2022-10-07T17:25:07.778Z,97984.03
2022-10-07T17:27:36.259Z,97981.34
2022-10-07T17:30:04.987Z,97978.25
2022-10-07T17:32:32.857Z,97990.56
2022-10-07T17:35:00.674Z,97986.63
2022-10-07T17:37:28.562Z,97990.41
2022-10-07T17:39:56.506Z,97981.66
2022-10-07T17:42:24.270Z,97981.03
2022-10-07T17:44:52.100Z,97982.53
2022-10-07T17:47:20.551Z,97986.94
2022-10-07T17:49:48.980Z,97988.44
2022-10-07T17:52:17.178Z,97987.22
2022-10-07T17:54:44.986Z,97988.47
2022-10-07T17:57:12.814Z,97989.34
2022-10-07T17:59:40.672Z,97993.50
2022-10-07T18:02:10.471Z,97989.19
2022-10-07T18:04:38.511Z,97990.88
2022-10-07T18:07:06.337Z,97992.56
2022-10-07T18:09:34.232Z,97978.84
2022-10-07T18:12:20.951Z,97979.53
2022-10-07T18:15:07.277Z,97978.50
2022-10-07T18:17:36.848Z,97978.50
2022-10-07T18:20:10.317Z,97979.78
2022-10-07T18:22:44.187Z,97983.75
2022-10-07T18:25:12.238Z,97984.38
2022-10-07T18:27:40.698Z,97971.31
2022-10-07T18:30:09.641Z,97972.13
2022-10-07T18:32:37.519Z,97972.34
2022-10-07T18:35:06.633Z,97968.00
2022-10-07T18:37:34.668Z,97973.16
2022-10-07T18:40:02.508Z,97967.53
2022-10-07T18:42:30.398Z,97966.94
2022-10-07T18:44:58.330Z,97965.06
2022-10-07T18:47:26.322Z,97963.63
2022-10-07T18:49:57.127Z,97960.31
2022-10-07T18:52:24.947Z,97953.47
2022-10-07T18:54:52.808Z,97957.41
2022-10-07T18:57:20.944Z,97959.28
2022-10-07T18:59:48.736Z,97957.03
2022-10-07T19:02:16.674Z,97956.41
2022-10-07T19:04:44.526Z,97957.44
2022-10-07T19:07:12.467Z,97950.38
2022-10-07T19:09:40.296Z,97958.69
2022-10-07T19:12:28.043Z,97962.44
2022-10-07T19:14:55.912Z,97955.16
2022-10-07T19:17:24.262Z,97968.91
2022-10-07T19:19:52.189Z,97965.34
2022-10-07T19:22:19.997Z,97966.19
2022-10-07T19:25:06.691Z,97966.41
2022-10-07T19:27:34.479Z,97969.31
2022-10-07T19:30:02.356Z,97964.31
2022-10-07T19:32:30.170Z,97963.09
2022-10-07T19:34:58.234Z,97970.78
2022-10-07T19:37:26.395Z,97966.19
2022-10-07T19:39:54.418Z,97966.84
2022-10-07T19:42:22.279Z,97961.63
2022-10-07T19:44:50.131Z,97961.81
2022-10-07T19:47:18.793Z,97966.59
2022-10-07T19:49:49.185Z,97963.50
2022-10-07T19:52:17.050Z,97960.63
2022-10-07T19:54:46.108Z,97961.84
2022-10-07T19:57:14.355Z,97966.63
2022-10-07T19:59:42.148Z,97961.44
2022-10-07T20:02:11.974Z,97965.59
2022-10-07T20:04:41.378Z,97962.69
2022-10-07T20:07:09.174Z,97957.31
2022-10-07T20:09:37.026Z,97961.22
2022-10-07T20:12:05.091Z,97953.34
2022-10-07T20:14:33.782Z,97953.97
2022-10-07T20:17:01.959Z,97958.75
2022-10-07T20:19:29.915Z,97958.34
2022-10-07T20:22:01.102Z,97955.69
2022-10-07T20:24:28.876Z,97959.00
2022-10-07T20:26:56.715Z,97948.81
2022-10-07T20:29:24.835Z,97951.50
2022-10-07T20:31:53.468Z,97967.72
2022-10-07T20:34:21.324Z,97956.50
2022-10-07T20:36:50.545Z,97952.13
2022-10-07T20:39:39.612Z,97954.63
2022-10-07T20:42:22.047Z,97954.81
2022-10-07T20:44:51.121Z,97957.97
2022-10-07T20:47:20.822Z,97949.44
2022-10-07T20:49:50.894Z,97951.94
2022-10-07T20:52:25.615Z,97942.59
2022-10-07T20:54:54.065Z,97955.25
2022-10-07T20:57:25.045Z,97946.97
2022-10-07T20:59:53.272Z,97943.00
2022-10-07T21:02:23.335Z,97939.03
2022-10-07T21:04:51.541Z,97938.00
2022-10-07T21:07:19.803Z,97936.97
2022-10-07T21:09:48.472Z,97936.13
2022-10-07T21:12:18.095Z,97936.56
2022-10-07T21:14:48.010Z,97938.84
2022-10-07T21:17:16.797Z,97934.28
2022-10-07T21:19:44.675Z,97931.78
2022-10-07T21:22:12.614Z,97923.50
2022-10-07T21:24:40.408Z,97923.28
2022-10-07T21:27:08.611Z,97923.28
2022-10-07T21:29:40.722Z,97917.47
2022-10-07T21:32:10.866Z,97919.75
2022-10-07T21:34:38.905Z,97914.16
2022-10-07T21:37:06.979Z,97917.50
2022-10-07T21:39:34.827Z,97918.13
2022-10-07T21:42:02.665Z,97905.88
2022-10-07T21:44:33.290Z,97904.81
2022-10-07T21:47:01.316Z,97904.03
2022-10-07T21:49:29.205Z,97904.44
2022-10-07T21:51:57.046Z,97915.03
2022-10-07T21:54:24.900Z,97914.19
2022-10-07T21:56:52.774Z,97915.84
2022-10-07T21:59:20.868Z,97912.53
2022-10-07T22:01:48.729Z,97923.75
2022-10-07T22:04:18.381Z,97914.19
2022-10-07T22:07:16.269Z,97905.66
2022-10-07T22:09:44.066Z,97915.66
2022-10-07T22:12:11.884Z,97917.69
2022-10-07T22:14:40.190Z,97920.63
2022-10-07T22:17:09.029Z,97920.63
2022-10-07T22:19:36.845Z,97920.19
2022-10-07T22:22:04.641Z,97910.88
2022-10-07T22:24:33.074Z,97909.00
2022-10-07T22:27:01.861Z,97917.28
2022-10-07T22:29:29.711Z,97907.34
2022-10-07T22:31:58.029Z,97911.25
2022-10-07T22:34:44.402Z,97915.63
2022-10-07T22:37:12.253Z,97908.34
2022-10-07T22:39:41.194Z,97911.69
2022-10-07T22:42:09.085Z,97907.56
2022-10-07T22:44:36.882Z,97907.75
2022-10-07T22:47:04.738Z,97912.13
2022-10-07T22:49:32.565Z,97900.06
2022-10-07T22:52:00.481Z,97898.84
2022-10-07T22:54:29.798Z,97893.03
2022-10-07T22:56:57.738Z,97889.47
2022-10-07T22:59:25.547Z,97900.91
2022-10-07T23:01:53.522Z,97896.97
2022-10-07T23:04:21.511Z,97892.19
2022-10-07T23:06:49.577Z,97895.31
2022-10-07T23:09:17.465Z,97895.50
2022-10-07T23:11:45.901Z,97893.84
2022-10-07T23:14:13.921Z,97894.03
2022-10-07T23:16:41.998Z,97891.97
2022-10-07T23:19:09.866Z,97890.72
2022-10-07T23:21:37.677Z,97888.84
2022-10-07T23:24:08.009Z,97889.25
2022-10-07T23:26:37.682Z,97887.38
2022-10-07T23:29:07.679Z,97885.50
2022-10-07T23:31:35.930Z,97884.06
2022-10-07T23:34:04.925Z,97881.78
2022-10-07T23:36:34.957Z,97877.41
2022-10-07T23:39:02.954Z,97876.19
2022-10-07T23:41:32.957Z,97878.44
2022-10-07T23:44:02.532Z,97884.06
2022-10-07T23:46:36.382Z,97877.63
2022-10-07T23:49:04.535Z,97877.00
2022-10-07T23:51:32.973Z,97878.03
2022-10-07T23:54:03.408Z,97867.03
2022-10-07T23:56:32.113Z,97875.53
2022-10-07T23:59:01.673Z,97874.72
